createdAt,value
2022-11-20T00:00:57.962Z,-7.33
2022-11-20T00:03:26.296Z,-7.32
2022-11-20T00:05:54.877Z,-7.29
2022-11-20T00:08:23.191Z,-7.28
2022-11-20T00:10:52.859Z,-7.32
2022-11-20T00:13:21.162Z,-7.28
2022-11-20T00:15:49.483Z,-7.27
2022-11-20T00:18:17.845Z,-7.32
2022-11-20T00:20:46.397Z,-7.28
2022-11-20T00:23:15.399Z,-7.33
2022-11-20T00:25:43.686Z,-7.35
2022-11-20T00:28:13.722Z,-7.36
2022-11-20T00:30:42.016Z,-7.36
2022-11-20T00:33:11.897Z,-7.40
2022-11-20T00:35:40.555Z,-7.43
2022-11-20T00:38:08.823Z,-7.45
2022-11-20T00:40:37.165Z,-7.47
2022-11-20T00:43:05.937Z,-7.53
2022-11-20T00:45:35.689Z,-7.55
2022-11-20T00:48:04.148Z,-7.55
2022-11-20T00:50:32.492Z,-7.57
2022-11-20T00:53:00.814Z,-7.59
2022-11-20T00:55:29.104Z,-7.59
2022-11-20T00:57:57.317Z,-7.58
2022-11-20T01:00:25.667Z,-7.55
2022-11-20T01:02:57.624Z,-7.54
2022-11-20T01:05:26.070Z,-7.53
2022-11-20T01:07:54.339Z,-7.57
2022-11-20T01:10:22.635Z,-7.62
2022-11-20T01:13:10.885Z,-7.65
2022-11-20T01:15:39.531Z,-7.67
2022-11-20T01:18:09.258Z,-7.64
2022-11-20T01:20:37.927Z,-7.62
2022-11-20T01:23:06.283Z,-7.57
2022-11-20T01:25:34.625Z,-7.55
2022-11-20T01:28:02.926Z,-7.53
2022-11-20T01:30:31.557Z,-7.53
2022-11-20T01:32:59.933Z,-7.51
2022-11-20T01:35:29.742Z,-7.54
2022-11-20T01:37:58.076Z,-7.51
2022-11-20T01:40:26.373Z,-7.48
2022-11-20T01:43:15.335Z,-7.45
2022-11-20T01:46:02.910Z,-7.44
2022-11-20T01:48:34.384Z,-7.41
2022-11-20T01:51:04.070Z,-7.36
2022-11-20T01:53:34.647Z,-7.37
2022-11-20T01:56:03.201Z,-7.42
2022-11-20T01:58:34.978Z,-7.57
2022-11-20T02:01:03.334Z,-7.56
2022-11-20T02:03:31.871Z,-7.54
2022-11-20T02:06:06.220Z,-7.53
2022-11-20T02:08:34.923Z,-7.50
2022-11-20T02:11:03.534Z,-7.54
2022-11-20T02:13:45.804Z,-7.55
2022-11-20T02:16:18.524Z,-7.47
2022-11-20T02:18:47.041Z,-7.44
2022-11-20T02:21:30.826Z,-7.43
2022-11-20T02:24:11.750Z,-7.40
2022-11-20T02:26:43.907Z,-7.37
2022-11-20T02:29:12.270Z,-7.36
2022-11-20T02:31:42.521Z,-7.32
2022-11-20T02:34:10.948Z,-7.21
2022-11-20T02:36:40.185Z,-7.24
2022-11-20T02:39:10.126Z,-7.20
2022-11-20T02:41:39.025Z,-7.09
2022-11-20T02:44:07.550Z,-7.03
2022-11-20T02:46:35.974Z,-7.05
2022-11-20T02:49:04.842Z,-7.07
2022-11-20T02:51:33.494Z,-7.07
2022-11-20T02:54:01.832Z,-7.08
2022-11-20T02:56:31.713Z,-7.03
2022-11-20T02:59:00.084Z,-7.03
2022-11-20T03:01:28.606Z,-7.02
2022-11-20T03:03:57.158Z,-7.00
2022-11-20T03:06:25.790Z,-6.99
2022-11-20T03:08:54.072Z,-7.01
2022-11-20T03:11:22.486Z,-7.16
2022-11-20T03:13:52.258Z,-7.21
2022-11-20T03:16:21.507Z,-7.19
2022-11-20T03:18:49.861Z,-7.13
2022-11-20T03:21:18.619Z,-7.07
2022-11-20T03:23:47.009Z,-7.11
2022-11-20T03:26:16.552Z,-7.05
2022-11-20T03:28:45.072Z,-7.06
2022-11-20T03:31:15.687Z,-7.08
2022-11-20T03:33:44.498Z,-7.00
2022-11-20T03:36:13.690Z,-7.00
2022-11-20T03:38:44.502Z,-6.84
2022-11-20T03:41:13.874Z,-6.81
2022-11-20T03:43:42.411Z,-6.86
2022-11-20T03:46:10.948Z,-6.85
2022-11-20T03:48:40.969Z,-6.87
2022-11-20T03:51:10.598Z,-6.86
2022-11-20T03:53:38.882Z,-6.82
2022-11-20T03:56:08.236Z,-6.81
2022-11-20T03:58:36.977Z,-6.82
2022-11-20T04:01:09.482Z,-6.79
2022-11-20T04:03:37.874Z,-6.78
2022-11-20T04:06:09.309Z,-6.81
2022-11-20T04:08:37.846Z,-6.78
2022-11-20T04:11:13.493Z,-6.68
2022-11-20T04:13:41.879Z,-6.68
2022-11-20T04:16:11.035Z,-6.70
2022-11-20T04:18:39.326Z,-6.75
2022-11-20T04:21:09.158Z,-6.82
2022-11-20T04:23:37.543Z,-6.86
2022-11-20T04:26:06.314Z,-6.84
2022-11-20T04:28:35.048Z,-6.83
2022-11-20T04:31:07.396Z,-6.80
2022-11-20T04:33:35.820Z,-6.80
2022-11-20T04:36:04.818Z,-6.81
2022-11-20T04:38:34.703Z,-6.76
2022-11-20T04:41:03.490Z,-6.82
2022-11-20T04:43:32.277Z,-6.73
2022-11-20T04:46:00.749Z,-6.72
2022-11-20T04:48:29.351Z,-6.68
2022-11-20T04:50:57.625Z,-6.59
2022-11-20T04:53:26.255Z,-6.63
2022-11-20T04:56:01.248Z,-6.66
2022-11-20T04:58:29.590Z,-6.69
2022-11-20T05:01:03.836Z,-6.69
2022-11-20T05:03:32.197Z,-6.73
2022-11-20T05:06:02.581Z,-6.75
2022-11-20T05:08:30.988Z,-6.76
2022-11-20T05:11:04.068Z,-6.73
2022-11-20T05:13:32.480Z,-6.72
2022-11-20T05:16:03.998Z,-6.69
2022-11-20T05:18:32.643Z,-6.66
2022-11-20T05:21:00.972Z,-6.71
2022-11-20T05:23:29.358Z,-6.67
2022-11-20T05:25:59.342Z,-6.68
2022-11-20T05:28:29.759Z,-6.68
2022-11-20T05:30:58.098Z,-6.72
2022-11-20T05:33:26.468Z,-6.73
2022-11-20T05:35:54.767Z,-6.66
2022-11-20T05:38:23.395Z,-6.63
2022-11-20T05:40:51.740Z,-6.53
2022-11-20T05:43:20.121Z,-6.43
2022-11-20T05:45:55.854Z,-6.47
2022-11-20T05:48:27.428Z,-6.54
2022-11-20T05:50:56.061Z,-6.55
2022-11-20T05:53:27.447Z,-6.48
2022-11-20T05:56:00.279Z,-6.42
2022-11-20T05:58:28.694Z,-6.34
2022-11-20T06:01:05.525Z,-6.32
2022-11-20T06:03:33.936Z,-6.34
2022-11-20T06:06:02.721Z,-6.35
2022-11-20T06:08:31.151Z,-6.37
2022-11-20T06:10:59.475Z,-6.34
2022-11-20T06:13:27.809Z,-6.33
2022-11-20T06:15:56.133Z,-6.27
2022-11-20T06:18:26.184Z,-6.21
2022-11-20T06:21:01.804Z,-6.10
2022-11-20T06:23:31.476Z,-6.04
2022-11-20T06:26:00.492Z,-5.87
2022-11-20T06:28:28.886Z,-5.67
2022-11-20T06:30:57.621Z,-5.63
2022-11-20T06:33:27.347Z,-5.53
2022-11-20T06:36:00.935Z,-5.40
2022-11-20T06:38:30.861Z,-5.30
2022-11-20T06:40:59.299Z,-5.24
2022-11-20T06:43:30.634Z,-5.18
2022-11-20T06:45:59.996Z,-5.17
2022-11-20T06:48:29.974Z,-5.14
2022-11-20T06:50:58.324Z,-5.02
2022-11-20T06:53:26.761Z,-4.85
2022-11-20T06:55:55.269Z,-4.66
2022-11-20T06:58:23.941Z,-4.47
2022-11-20T07:00:52.349Z,-4.21
2022-11-20T07:03:20.750Z,-4.08
2022-11-20T07:05:50.543Z,-3.95
2022-11-20T07:08:19.098Z,-3.70
2022-11-20T07:10:47.452Z,-3.56
2022-11-20T07:13:17.444Z,-3.37
2022-11-20T07:15:45.844Z,-3.24
2022-11-20T07:18:14.179Z,-3.14
2022-11-20T07:20:42.457Z,-3.04
2022-11-20T07:23:12.266Z,-2.94
2022-11-20T07:25:40.963Z,-2.84
2022-11-20T07:28:09.337Z,-2.75
2022-11-20T07:30:37.787Z,-2.68
2022-11-20T07:33:06.225Z,-2.57
2022-11-20T07:35:35.070Z,-2.50
2022-11-20T07:38:03.336Z,-2.41
2022-11-20T07:40:33.494Z,-2.31
2022-11-20T07:43:01.804Z,-2.27
2022-11-20T07:45:30.156Z,-2.19
2022-11-20T07:47:58.580Z,-2.09
2022-11-20T07:50:26.972Z,-2.05
2022-11-20T07:52:59.739Z,-2.01
2022-11-20T07:55:28.310Z,-2.00
2022-11-20T07:57:58.492Z,-1.95
2022-11-20T08:00:27.035Z,-1.89
2022-11-20T08:02:55.630Z,-1.82
2022-11-20T08:05:24.152Z,-1.76
2022-11-20T08:07:52.821Z,-1.69
2022-11-20T08:10:21.373Z,-1.68
2022-11-20T08:13:07.732Z,-1.65
2022-11-20T08:15:37.498Z,-1.60
2022-11-20T08:20:55.356Z,-1.51
2022-11-20T08:23:25.270Z,-1.44
2022-11-20T08:25:53.547Z,-1.41
2022-11-20T08:28:22.810Z,-1.35
2022-11-20T08:30:52.554Z,-1.29
2022-11-20T08:33:23.832Z,-1.22
2022-11-20T08:35:52.397Z,-1.17
2022-11-20T08:38:20.757Z,-1.13
2022-11-20T08:41:09.050Z,-1.03
2022-11-20T08:43:37.354Z,-0.94
2022-11-20T08:46:07.341Z,-0.89
2022-11-20T08:48:35.995Z,-0.68
2022-11-20T08:51:04.325Z,-0.46
2022-11-20T08:53:32.985Z,-0.35
2022-11-20T08:56:01.294Z,-0.43
2022-11-20T08:58:30.998Z,-0.49
2022-11-20T09:00:59.522Z,-0.53
2022-11-20T09:03:32.869Z,-0.55
2022-11-20T09:06:02.229Z,-0.55
2022-11-20T09:08:30.620Z,-0.59
2022-11-20T09:10:59.072Z,-0.62
2022-11-20T09:13:27.999Z,-0.58
2022-11-20T09:15:57.295Z,-0.57
2022-11-20T09:18:25.707Z,-0.54
2022-11-20T09:20:58.810Z,-0.50
2022-11-20T09:23:27.267Z,-0.42
2022-11-20T09:25:57.911Z,-0.35
2022-11-20T09:28:26.213Z,-0.36
2022-11-20T09:30:54.810Z,-0.40
2022-11-20T09:33:25.608Z,-0.41
2022-11-20T09:35:55.301Z,-0.35
2022-11-20T09:38:23.599Z,-0.28
2022-11-20T09:40:55.524Z,-0.27
2022-11-20T09:43:25.502Z,-0.26
2022-11-20T09:45:59.529Z,-0.27
2022-11-20T09:48:33.571Z,-0.24
2022-11-20T09:51:06.425Z,-0.22
2022-11-20T09:53:39.412Z,-0.19
2022-11-20T09:56:09.770Z,-0.14
2022-11-20T09:58:41.152Z,-0.13
2022-11-20T10:01:13.053Z,-0.12
2022-11-20T10:03:47.126Z,-0.12
2022-11-20T10:06:19.565Z,-0.13
2022-11-20T10:08:49.983Z,-0.16
2022-11-20T10:11:24.375Z,-0.16
2022-11-20T10:13:57.697Z,-0.15
2022-11-20T10:16:30.551Z,-0.17
2022-11-20T10:19:05.565Z,-0.24
2022-11-20T10:21:39.960Z,-0.21
2022-11-20T10:24:44.293Z,-0.21
2022-11-20T10:27:24.211Z,-0.22
2022-11-20T10:29:57.141Z,-0.22
2022-11-20T10:32:26.765Z,-0.22
2022-11-20T10:34:57.146Z,-0.17
2022-11-20T10:37:27.404Z,-0.09
2022-11-20T10:39:59.139Z,-0.01
2022-11-20T10:42:31.242Z,0.05
2022-11-20T10:45:06.735Z,0.05
2022-11-20T10:47:35.251Z,0.07
2022-11-20T10:50:05.459Z,0.10
2022-11-20T10:52:40.278Z,0.19
2022-11-20T10:55:13.071Z,0.26
2022-11-20T10:57:51.304Z,0.34
2022-11-20T11:00:19.735Z,0.39
2022-11-20T11:02:49.593Z,0.38
2022-11-20T11:05:24.912Z,0.42
2022-11-20T11:07:55.580Z,0.42
2022-11-20T11:10:28.036Z,0.44
2022-11-20T11:12:56.639Z,0.43
2022-11-20T11:15:29.801Z,0.39
2022-11-20T11:17:58.108Z,0.35
2022-11-20T11:20:27.232Z,0.33
2022-11-20T11:22:57.554Z,0.33
2022-11-20T11:25:31.275Z,0.35
2022-11-20T11:28:00.657Z,0.35
2022-11-20T11:30:35.201Z,0.33
2022-11-20T11:33:10.297Z,0.31
2022-11-20T11:35:51.887Z,0.28
2022-11-20T11:38:23.757Z,0.27
2022-11-20T11:40:52.077Z,0.25
2022-11-20T11:43:39.210Z,0.25
2022-11-20T11:46:12.222Z,0.26
2022-11-20T11:48:40.908Z,0.28
2022-11-20T11:51:10.537Z,0.29
2022-11-20T11:53:40.407Z,0.29
2022-11-20T11:56:10.654Z,0.27
2022-11-20T11:58:45.357Z,0.31
2022-11-20T12:01:22.807Z,0.31
2022-11-20T12:03:55.964Z,0.33
2022-11-20T12:06:24.514Z,0.35
2022-11-20T12:08:55.602Z,0.35
2022-11-20T12:11:26.757Z,0.38
2022-11-20T12:13:58.362Z,0.38
2022-11-20T12:16:27.034Z,0.39
2022-11-20T12:18:55.373Z,0.40
2022-11-20T12:21:30.805Z,0.40
2022-11-20T12:24:12.259Z,0.40
2022-11-20T12:26:48.155Z,0.41
2022-11-20T12:29:21.109Z,0.41
2022-11-20T12:31:57.283Z,0.41
2022-11-20T12:34:42.581Z,0.44
2022-11-20T12:37:15.039Z,0.47
2022-11-20T12:39:47.728Z,0.51
2022-11-20T12:43:00.262Z,0.54
2022-11-20T12:45:43.416Z,0.58
2022-11-20T12:48:28.162Z,0.59
2022-11-20T12:51:15.593Z,0.64
2022-11-20T12:53:47.430Z,0.67
2022-11-20T12:56:25.350Z,0.72
2022-11-20T12:59:00.222Z,0.73
2022-11-20T13:01:42.181Z,0.78
2022-11-20T13:04:16.212Z,0.81
2022-11-20T13:06:44.544Z,0.84
2022-11-20T13:09:15.310Z,0.83
2022-11-20T13:11:47.075Z,0.84
2022-11-20T13:14:23.276Z,0.82
2022-11-20T13:16:53.812Z,0.84
2022-11-20T13:19:22.034Z,0.80
2022-11-20T13:21:52.614Z,0.80
2022-11-20T13:24:28.840Z,0.77
2022-11-20T13:27:20.258Z,0.74
2022-11-20T13:29:49.046Z,0.71
2022-11-20T13:32:19.133Z,0.69
2022-11-20T13:34:54.219Z,0.65
2022-11-20T13:37:31.456Z,0.63
2022-11-20T13:40:21.663Z,0.63
2022-11-20T13:42:58.249Z,0.61
2022-11-20T13:45:28.740Z,0.60
2022-11-20T13:47:57.395Z,0.57
2022-11-20T13:50:41.995Z,0.57
2022-11-20T13:53:16.930Z,0.57
2022-11-20T13:55:47.223Z,0.58
2022-11-20T13:58:23.672Z,0.55
2022-11-20T14:00:54.071Z,0.55
2022-11-20T14:03:44.059Z,0.55
2022-11-20T14:06:15.833Z,0.55
2022-11-20T14:08:45.317Z,0.54
2022-11-20T14:11:17.971Z,0.52
2022-11-20T14:13:59.516Z,0.52
2022-11-20T14:16:28.737Z,0.51
2022-11-20T14:18:57.649Z,0.50
2022-11-20T14:21:27.699Z,0.50
2022-11-20T14:23:56.840Z,0.48
2022-11-20T14:26:25.139Z,0.47
2022-11-20T14:28:53.985Z,0.46
2022-11-20T14:31:26.350Z,0.48
2022-11-20T14:33:55.011Z,0.48
2022-11-20T14:36:24.457Z,0.47
2022-11-20T14:38:53.056Z,0.47
2022-11-20T14:41:22.093Z,0.44
2022-11-20T14:43:52.262Z,0.43
2022-11-20T14:46:20.551Z,0.41
2022-11-20T14:48:51.698Z,0.37
2022-11-20T14:51:30.451Z,0.36
2022-11-20T14:53:58.786Z,0.35
2022-11-20T14:56:27.092Z,0.36
2022-11-20T14:58:58.496Z,0.36
2022-11-20T15:01:30.524Z,0.34
2022-11-20T15:04:04.337Z,0.32
2022-11-20T15:06:32.925Z,0.33
2022-11-20T15:09:01.248Z,0.30
2022-11-20T15:11:32.558Z,0.30
2022-11-20T15:14:01.524Z,0.29
2022-11-20T15:16:29.796Z,0.29
2022-11-20T15:18:58.321Z,0.27
2022-11-20T15:21:28.110Z,0.27
2022-11-20T15:23:56.544Z,0.26
2022-11-20T15:26:26.720Z,0.25
2022-11-20T15:28:55.470Z,0.24
2022-11-20T15:31:25.054Z,0.22
2022-11-20T15:33:53.459Z,0.24
2022-11-20T15:36:21.803Z,0.21
2022-11-20T15:38:51.733Z,0.21
2022-11-20T15:41:20.092Z,0.21
2022-11-20T15:43:48.805Z,0.21
2022-11-20T15:46:18.262Z,0.21
2022-11-20T15:48:48.582Z,0.20
2022-11-20T15:51:23.899Z,0.19
2022-11-20T15:53:53.694Z,0.18
2022-11-20T15:56:22.362Z,0.19
2022-11-20T15:58:50.750Z,0.19
2022-11-20T16:01:19.990Z,0.19
2022-11-20T16:03:48.394Z,0.20
2022-11-20T16:06:17.403Z,0.20
2022-11-20T16:08:46.477Z,0.19
2022-11-20T16:11:16.840Z,0.18
2022-11-20T16:14:02.579Z,0.17
2022-11-20T16:16:31.645Z,0.15
2022-11-20T16:19:01.054Z,0.13
2022-11-20T16:21:32.378Z,0.13
2022-11-20T16:24:01.239Z,0.10
2022-11-20T16:26:30.956Z,0.10
2022-11-20T16:29:00.647Z,0.09
2022-11-20T16:31:28.947Z,0.05
2022-11-20T16:33:58.214Z,0.03
2022-11-20T16:36:30.970Z,0.02
2022-11-20T16:39:00.241Z,-0.05
2022-11-20T16:41:28.891Z,-0.08
2022-11-20T16:43:59.769Z,-0.14
2022-11-20T16:46:29.202Z,-0.19
2022-11-20T16:48:58.231Z,-0.23
2022-11-20T16:51:26.740Z,-0.30
2022-11-20T16:53:56.076Z,-0.37
2022-11-20T16:56:25.302Z,-0.41
2022-11-20T16:58:54.771Z,-0.47
2022-11-20T17:01:25.058Z,-0.51
2022-11-20T17:03:57.500Z,-0.53
2022-11-20T17:06:26.738Z,-0.54
2022-11-20T17:08:55.411Z,-0.54
2022-11-20T17:11:23.702Z,-0.54
2022-11-20T17:13:52.135Z,-0.53
2022-11-20T17:16:21.190Z,-0.51
2022-11-20T17:18:51.291Z,-0.49
2022-11-20T17:21:19.982Z,-0.49
2022-11-20T17:23:48.395Z,-0.46
2022-11-20T17:26:17.888Z,-0.43
2022-11-20T17:28:46.514Z,-0.44
2022-11-20T17:31:18.032Z,-0.45
2022-11-20T17:33:47.332Z,-0.45
2022-11-20T17:36:17.649Z,-0.46
2022-11-20T17:38:46.075Z,-0.42
2022-11-20T17:41:15.104Z,-0.40
2022-11-20T17:43:44.192Z,-0.35
2022-11-20T17:46:13.494Z,-0.38
2022-11-20T17:48:43.956Z,-0.40
2022-11-20T17:51:13.383Z,-0.41
2022-11-20T17:53:43.887Z,-0.44
2022-11-20T17:56:30.119Z,-0.49
2022-11-20T17:58:58.620Z,-0.49
2022-11-20T18:01:26.987Z,-0.49
2022-11-20T18:03:55.385Z,-0.49
2022-11-20T18:06:25.189Z,-0.50
2022-11-20T18:08:55.017Z,-0.53
2022-11-20T18:11:24.309Z,-0.61
2022-11-20T18:14:11.051Z,-0.60
2022-11-20T18:16:43.002Z,-0.56
2022-11-20T18:19:11.529Z,-0.57
2022-11-20T18:21:39.905Z,-0.54
2022-11-20T18:24:10.394Z,-0.56
2022-11-20T18:26:44.091Z,-0.56
2022-11-20T18:29:13.206Z,-0.60
2022-11-20T18:31:41.689Z,-0.57
2022-11-20T18:34:12.390Z,-0.54
2022-11-20T18:36:40.853Z,-0.52
2022-11-20T18:39:11.494Z,-0.51
2022-11-20T18:41:57.447Z,-0.51
2022-11-20T18:44:46.342Z,-0.50
2022-11-20T18:47:16.209Z,-0.48
2022-11-20T18:49:51.113Z,-0.46
2022-11-20T18:52:20.972Z,-0.42
2022-11-20T18:54:51.120Z,-0.39
2022-11-20T18:57:19.543Z,-0.39
2022-11-20T18:59:48.013Z,-0.37
2022-11-20T19:02:16.701Z,-0.37
2022-11-20T19:04:45.143Z,-0.32
2022-11-20T19:07:13.906Z,-0.30
2022-11-20T19:09:42.392Z,-0.25
2022-11-20T19:12:12.813Z,-0.26
2022-11-20T19:14:41.175Z,-0.21
2022-11-20T19:17:11.055Z,-0.16
2022-11-20T19:19:39.825Z,-0.13
2022-11-20T19:22:08.319Z,-0.12
2022-11-20T19:24:36.783Z,-0.08
2022-11-20T19:27:05.459Z,-0.07
2022-11-20T19:29:35.349Z,-0.05
2022-11-20T19:32:04.622Z,0.00
2022-11-20T19:34:33.426Z,0.02
2022-11-20T19:37:02.260Z,0.05
2022-11-20T19:39:30.956Z,0.05
2022-11-20T19:41:59.361Z,0.08
2022-11-20T19:44:27.940Z,0.07
2022-11-20T19:46:58.743Z,0.10
2022-11-20T19:49:27.095Z,0.10
2022-11-20T19:51:56.499Z,0.11
2022-11-20T19:54:24.965Z,0.13
2022-11-20T19:56:53.312Z,0.14
2022-11-20T19:59:21.899Z,0.17
2022-11-20T20:01:50.792Z,0.18
2022-11-20T20:04:20.632Z,0.20
2022-11-20T20:06:48.954Z,0.24
2022-11-20T20:09:17.666Z,0.25
2022-11-20T20:11:46.661Z,0.26
2022-11-20T20:14:16.523Z,0.30
2022-11-20T20:16:45.242Z,0.33
2022-11-20T20:19:14.326Z,0.35
2022-11-20T20:21:44.352Z,0.36
2022-11-20T20:24:12.773Z,0.39
2022-11-20T20:26:41.515Z,0.44
2022-11-20T20:29:09.867Z,0.45
2022-11-20T20:31:38.201Z,0.49
2022-11-20T20:34:07.131Z,0.51
2022-11-20T20:36:35.552Z,0.55
2022-11-20T20:39:05.420Z,0.56
2022-11-20T20:41:34.062Z,0.58
2022-11-20T20:44:20.146Z,0.62
2022-11-20T20:46:48.515Z,0.68
2022-11-20T20:49:16.982Z,0.72
2022-11-20T20:51:45.218Z,0.77
2022-11-20T20:54:15.217Z,0.80
2022-11-20T20:56:43.656Z,0.84
2022-11-20T20:59:12.237Z,0.85
2022-11-20T21:01:40.691Z,0.87
2022-11-20T21:04:09.026Z,0.91
2022-11-20T21:06:37.696Z,0.97
2022-11-20T21:09:06.153Z,1.05
2022-11-20T21:11:36.125Z,1.06
2022-11-20T21:14:04.458Z,1.05
2022-11-20T21:16:41.341Z,1.13
2022-11-20T21:19:09.746Z,1.20
2022-11-20T21:21:55.736Z,1.21
2022-11-20T21:24:25.152Z,1.26
2022-11-20T21:26:55.466Z,1.30
2022-11-20T21:29:24.256Z,1.26
2022-11-20T21:31:52.958Z,1.26
2022-11-20T21:34:22.006Z,1.33
2022-11-20T21:36:50.662Z,1.39
2022-11-20T21:39:19.075Z,1.43
2022-11-20T21:41:47.347Z,1.49
2022-11-20T21:44:30.984Z,1.47
2022-11-20T21:47:00.187Z,1.47
2022-11-20T21:49:28.581Z,1.47
2022-11-20T21:51:57.214Z,1.49
2022-11-20T21:54:25.873Z,1.54
2022-11-20T21:56:54.410Z,1.54
2022-11-20T21:59:24.252Z,1.54
2022-11-20T22:01:53.165Z,1.58
2022-11-20T22:04:23.040Z,1.54
2022-11-20T22:06:51.555Z,1.60
2022-11-20T22:09:19.843Z,1.62
2022-11-20T22:11:48.268Z,1.61
2022-11-20T22:14:22.409Z,1.63
2022-11-20T22:16:53.401Z,1.62
2022-11-20T22:19:22.062Z,1.62
2022-11-20T22:21:50.738Z,1.61
2022-11-20T22:24:19.800Z,1.59
2022-11-20T22:26:48.275Z,1.59
2022-11-20T22:29:17.335Z,1.58
2022-11-20T22:31:45.651Z,1.62
2022-11-20T22:34:15.509Z,1.60
2022-11-20T22:36:43.723Z,1.63
2022-11-20T22:39:12.031Z,1.61
2022-11-20T22:41:40.678Z,1.61
2022-11-20T22:44:09.247Z,1.63
2022-11-20T22:46:38.302Z,1.67
2022-11-20T22:49:08.603Z,1.63
2022-11-20T22:51:39.233Z,1.67
2022-11-20T22:54:07.665Z,1.65
2022-11-20T22:56:36.471Z,1.63
2022-11-20T22:59:04.739Z,1.64
2022-11-20T23:01:34.733Z,1.64
2022-11-20T23:04:03.694Z,1.71
2022-11-20T23:06:34.225Z,1.72
2022-11-20T23:09:04.172Z,1.72
2022-11-20T23:11:33.147Z,1.74
2022-11-20T23:14:02.233Z,1.77
2022-11-20T23:16:31.199Z,1.80
2022-11-20T23:19:00.938Z,1.80
2022-11-20T23:21:29.304Z,1.84
2022-11-20T23:23:58.822Z,1.85
2022-11-20T23:26:29.371Z,1.85
2022-11-20T23:28:58.785Z,1.89
2022-11-20T23:31:27.318Z,1.91
2022-11-20T23:33:55.709Z,1.89
2022-11-20T23:36:24.063Z,1.91
2022-11-20T23:38:52.803Z,1.89
2022-11-20T23:41:21.069Z,1.93
2022-11-20T23:43:51.083Z,1.92
2022-11-20T23:46:19.374Z,1.88
2022-11-20T23:48:47.843Z,1.85
2022-11-20T23:51:16.782Z,1.86
2022-11-20T23:53:45.032Z,1.88
2022-11-20T23:56:14.789Z,1.88
2022-11-20T23:58:43.241Z,1.88
